Time;durP1;ratioP1;P1;durP2;ratioP2;P2;SDS_P1;SDS_P2;PMS_P1;PMS_P2;Temp;Humidity;BMP_temperature;BMP_pressure;BME280_temperature;BME280_humidity;BME280_pressure;Samples;Min_cycle;Max_cycle;Signal;HPM_P1;HPM_P2
2024/04/10 00:01:51;;;;;;;1999.90;999.90;;;;;;;;;;5387935;26;20014;-79
2024/04/10 00:04:17;;;;;;;1999.90;999.90;;;;;;;;;;5397022;26;20047;-79
2024/04/10 00:06:45;;;;;;;1999.90;999.90;;;;;;;;;;5396933;26;20347;-78
2024/04/10 00:09:10;;;;;;;1999.90;999.90;;;;;;;;;;5391392;26;20014;-78
2024/04/10 00:11:39;;;;;;;1999.90;999.90;;;;;;;;;;5393541;26;20040;-78
2024/04/10 00:14:07;;;;;;;1999.90;999.90;;;;;;;;;;5394179;26;20596;-79
2024/04/10 00:16:35;;;;;;;1999.90;999.90;;;;;;;;;;5396473;26;20004;-79
2024/04/10 00:19:01;;;;;;;1999.90;999.90;;;;;;;;;;5386782;26;20004;-79
2024/04/10 00:21:32;;;;;;;1999.90;999.90;;;;;;;;;;5398401;26;19999;-78
2024/04/10 00:23:58;;;;;;;1999.90;999.90;;;;;;;;;;5391559;26;19996;-78
2024/04/10 00:26:26;;;;;;;1999.90;999.90;;;;;;;;;;5398665;26;20465;-78
2024/04/10 00:28:52;;;;;;;1999.90;999.90;;;;;;;;;;5396773;26;20109;-78
2024/04/10 00:31:22;;;;;;;1999.90;999.90;;;;;;;;;;5396182;26;20012;-79
2024/04/10 00:33:48;;;;;;;1999.90;999.90;;;;;;;;;;5393355;26;20003;-78
2024/04/10 00:36:16;;;;;;;1999.90;999.90;;;;;;;;;;5390357;26;20426;-79
2024/04/10 00:38:42;;;;;;;1999.90;999.90;;;;;;;;;;5391231;26;20096;-80
2024/04/10 00:41:10;;;;;;;1999.90;999.90;;;;;;;;;;5387482;26;20011;-79
2024/04/10 00:43:36;;;;;;;1999.90;999.90;;;;;;;;;;5393062;26;20565;-79
2024/04/10 00:46:10;;;;;;;1999.90;999.90;;;;;;;;;;5392655;26;20011;-79
2024/04/10 00:48:39;;;;;;;1999.90;999.90;;;;;;;;;;5389420;26;20000;-79
2024/04/10 00:51:10;;;;;;;1999.90;999.90;;;;;;;;;;5396682;26;20012;-79
2024/04/10 00:53:37;;;;;;;1999.90;999.90;;;;;;;;;;5386470;26;20000;-79
2024/04/10 00:56:06;;;;;;;1999.90;999.90;;;;;;;;;;5393928;26;20075;-79
2024/04/10 00:58:33;;;;;;;1999.90;999.90;;;;;;;;;;5391356;26;20339;-78
2024/04/10 01:01:01;;;;;;;1999.90;999.90;;;;;;;;;;5398598;26;20081;-79
2024/04/10 01:03:27;;;;;;;1999.90;999.90;;;;;;;;;;5397726;26;20446;-79
2024/04/10 01:06:01;;;;;;;1999.90;999.90;;;;;;;;;;5392739;26;20008;-79
2024/04/10 01:08:28;;;;;;;1999.90;999.90;;;;;;;;;;5393407;26;20000;-78
2024/04/10 01:10:56;;;;;;;1999.90;999.90;;;;;;;;;;5393445;26;20047;-79
2024/04/10 01:13:22;;;;;;;1999.90;999.90;;;;;;;;;;5396164;26;20026;-78
2024/04/10 01:15:50;;;;;;;1999.90;999.90;;;;;;;;;;5401509;26;19999;-79
2024/04/10 01:18:16;;;;;;;1999.90;999.90;;;;;;;;;;5401236;26;20035;-79
2024/04/10 01:20:44;;;;;;;1999.90;999.90;;;;;;;;;;5393655;26;20457;-79
2024/04/10 01:23:13;;;;;;;1999.90;999.90;;;;;;;;;;5392333;26;20081;-79
2024/04/10 01:25:41;;;;;;;1999.90;999.90;;;;;;;;;;5396658;26;20154;-79
2024/04/10 01:28:07;;;;;;;1999.90;999.90;;;;;;;;;;5412055;26;20053;-78
2024/04/10 01:30:45;;;;;;;1999.90;999.90;;;;;;;;;;5398822;26;20000;-79
2024/04/10 01:33:19;;;;;;;1999.90;999.90;;;;;;;;;;5396023;26;20068;-78
2024/04/10 01:35:48;;;;;;;1999.90;999.90;;;;;;;;;;5415473;26;20008;-79
2024/04/10 01:38:16;;;;;;;1999.90;999.90;;;;;;;;;;5394066;26;20107;-79
2024/04/10 01:40:44;;;;;;;1999.90;999.90;;;;;;;;;;5395431;26;20003;-79
2024/04/10 01:43:10;;;;;;;1999.90;999.90;;;;;;;;;;5397768;26;20105;-79
2024/04/10 01:45:38;;;;;;;1999.90;999.90;;;;;;;;;;5396176;26;20012;-79
2024/04/10 01:48:04;;;;;;;1999.90;999.90;;;;;;;;;;5395954;26;20008;-79
2024/04/10 01:50:33;;;;;;;1999.90;999.90;;;;;;;;;;5397414;26;20028;-79
2024/04/10 01:52:58;;;;;;;1999.90;999.90;;;;;;;;;;5392180;26;20012;-79
2024/04/10 01:55:29;;;;;;;1999.90;999.90;;;;;;;;;;5395130;26;20015;-79
2024/04/10 01:57:58;;;;;;;1999.90;999.90;;;;;;;;;;5397819;26;19999;-79
2024/04/10 02:00:26;;;;;;;1999.90;999.90;;;;;;;;;;5397924;26;20000;-79
2024/04/10 02:02:52;;;;;;;1999.90;999.90;;;;;;;;;;5398630;26;20000;-79
2024/04/10 02:05:20;;;;;;;1999.90;999.90;;;;;;;;;;5397319;26;20472;-79
2024/04/10 02:07:46;;;;;;;1999.90;999.90;;;;;;;;;;5392147;26;20022;-79
2024/04/10 02:10:14;;;;;;;1999.90;999.90;;;;;;;;;;5399364;26;20526;-79
2024/04/10 02:12:42;;;;;;;1999.90;999.90;;;;;;;;;;5397604;26;20076;-79
2024/04/10 02:15:11;;;;;;;1999.90;999.90;;;;;;;;;;5392285;26;20795;-79
2024/04/10 02:17:36;;;;;;;1999.90;999.90;;;;;;;;;;5394642;26;19996;-79
2024/04/10 02:20:06;;;;;;;1999.90;999.90;;;;;;;;;;5396194;26;20007;-79
2024/04/10 02:22:31;;;;;;;1999.90;999.90;;;;;;;;;;5398639;26;20000;-80
2024/04/10 02:25:00;;;;;;;1999.90;999.90;;;;;;;;;;5398409;26;20018;-80
2024/04/10 02:27:25;;;;;;;1999.90;999.90;;;;;;;;;;5397572;26;20350;-79
2024/04/10 02:29:56;;;;;;;1999.90;999.90;;;;;;;;;;5386768;26;20020;-79
2024/04/10 02:32:22;;;;;;;1999.90;999.90;;;;;;;;;;5389277;26;20008;-79
2024/04/10 02:34:50;;;;;;;1999.90;999.90;;;;;;;;;;5397904;26;20014;-79
2024/04/10 02:37:16;;;;;;;1999.90;999.90;;;;;;;;;;5390760;26;20004;-80
2024/04/10 02:39:44;;;;;;;1999.90;999.90;;;;;;;;;;5393302;26;20350;-79
2024/04/10 02:42:10;;;;;;;1999.90;999.90;;;;;;;;;;5393721;26;20019;-79
2024/04/10 02:44:38;;;;;;;1999.90;999.90;;;;;;;;;;5397716;26;20463;-79
2024/04/10 02:47:07;;;;;;;1999.90;999.90;;;;;;;;;;5398900;26;20135;-80
2024/04/10 02:49:35;;;;;;;1999.90;999.90;;;;;;;;;;5394239;26;20004;-79
2024/04/10 02:52:00;;;;;;;1999.90;999.90;;;;;;;;;;5396655;26;20011;-79
2024/04/10 02:54:29;;;;;;;1999.90;999.90;;;;;;;;;;5400154;26;20018;-79
2024/04/10 02:56:55;;;;;;;1999.90;999.90;;;;;;;;;;5391662;26;20085;-79
2024/04/10 02:59:23;;;;;;;1999.90;999.90;;;;;;;;;;5391411;26;20022;-79
2024/04/10 03:01:51;;;;;;;1999.90;999.90;;;;;;;;;;5397587;26;20076;-80
2024/04/10 03:04:21;;;;;;;1999.90;999.90;;;;;;;;;;5393523;26;20074;-79
2024/04/10 03:06:48;;;;;;;1999.90;999.90;;;;;;;;;;5390933;26;20010;-79
2024/04/10 03:09:16;;;;;;;1999.90;999.90;;;;;;;;;;5397372;26;20032;-79
2024/04/10 03:11:42;;;;;;;1999.90;999.90;;;;;;;;;;5400177;26;20028;-79
2024/04/10 03:14:10;;;;;;;1999.90;999.90;;;;;;;;;;5393483;26;20077;-80
2024/04/10 03:16:36;;;;;;;1999.90;999.90;;;;;;;;;;5396428;26;20032;-79
2024/04/10 03:19:04;;;;;;;1999.90;999.90;;;;;;;;;;5394652;26;20486;-79
2024/04/10 03:21:32;;;;;;;1999.90;999.90;;;;;;;;;;5395793;26;20076;-79
2024/04/10 03:24:01;;;;;;;1999.90;999.90;;;;;;;;;;5389904;26;20016;-79
2024/04/10 03:26:26;;;;;;;1999.90;999.90;;;;;;;;;;5395544;26;20008;-80
2024/04/10 03:28:55;;;;;;;1999.90;999.90;;;;;;;;;;5396150;26;20362;-79
2024/04/10 03:31:21;;;;;;;1999.90;999.90;;;;;;;;;;5392817;26;20000;-79
2024/04/10 03:33:49;;;;;;;1999.90;999.90;;;;;;;;;;5390841;26;20004;-79
2024/04/10 03:36:14;;;;;;;1999.90;999.90;;;;;;;;;;5389713;26;20014;-79
2024/04/10 03:38:45;;;;;;;1999.90;999.90;;;;;;;;;;5393914;26;20015;-80
2024/04/10 03:41:11;;;;;;;1999.90;999.90;;;;;;;;;;5392445;26;20011;-79
2024/04/10 03:43:39;;;;;;;1999.90;999.90;;;;;;;;;;5394749;26;20014;-79
2024/04/10 03:46:10;;;;;;;1999.90;999.90;;;;;;;;;;5397543;26;20007;-79
2024/04/10 03:48:38;;;;;;;1999.90;999.90;;;;;;;;;;5398152;26;20003;-79
2024/04/10 03:51:05;;;;;;;1999.90;999.90;;;;;;;;;;5402467;26;20097;-79
2024/04/10 03:53:34;;;;;;;1999.90;999.90;;;;;;;;;;5394951;26;20004;-79
2024/04/10 03:56:02;;;;;;;1999.90;999.90;;;;;;;;;;5391673;26;20011;-79
2024/04/10 03:58:31;;;;;;;1999.90;999.90;;;;;;;;;;5394712;26;20015;-79
2024/04/10 04:00:56;;;;;;;1999.90;999.90;;;;;;;;;;5401148;26;20000;-79
2024/04/10 04:03:24;;;;;;;1999.90;999.90;;;;;;;;;;5397544;26;20020;-79
2024/04/10 04:05:50;;;;;;;1999.90;999.90;;;;;;;;;;5399570;26;20076;-79
2024/04/10 04:08:20;;;;;;;1999.90;999.90;;;;;;;;;;5395147;26;20012;-79
2024/04/10 04:10:46;;;;;;;1999.90;999.90;;;;;;;;;;5392383;26;20072;-78
2024/04/10 04:13:17;;;;;;;1999.90;999.90;;;;;;;;;;5395719;26;20431;-79
2024/04/10 04:15:44;;;;;;;1999.90;999.90;;;;;;;;;;5392115;26;20019;-78
2024/04/10 04:18:12;;;;;;;1999.90;999.90;;;;;;;;;;5389927;26;20004;-79
2024/04/10 04:20:37;;;;;;;1999.90;999.90;;;;;;;;;;5385424;26;20062;-78
2024/04/10 04:23:06;;;;;;;1999.90;999.90;;;;;;;;;;5389060;26;20024;-79
2024/04/10 04:25:33;;;;;;;1999.90;999.90;;;;;;;;;;5396498;26;20081;-78
2024/04/10 04:28:02;;;;;;;1999.90;999.90;;;;;;;;;;5393744;26;20074;-79
2024/04/10 04:30:30;;;;;;;1999.90;999.90;;;;;;;;;;5392509;26;20004;-79
2024/04/10 04:32:59;;;;;;;1999.90;999.90;;;;;;;;;;5392458;26;20004;-78
2024/04/10 04:35:25;;;;;;;1999.90;999.90;;;;;;;;;;5385180;26;20047;-79
2024/04/10 04:37:58;;;;;;;1999.90;999.90;;;;;;;;;;5394213;26;19999;-79
2024/04/10 04:40:31;;;;;;;1999.90;999.90;;;;;;;;;;5385927;26;20015;-80
2024/04/10 04:42:58;;;;;;;1999.90;999.90;;;;;;;;;;5391930;26;20015;-79
2024/04/10 04:45:27;;;;;;;1999.90;999.90;;;;;;;;;;5389888;26;20008;-79
2024/04/10 04:47:55;;;;;;;1999.90;999.90;;;;;;;;;;5390968;26;20011;-79
2024/04/10 04:50:23;;;;;;;1999.90;999.90;;;;;;;;;;5397705;26;20019;-80
2024/04/10 04:52:50;;;;;;;1999.90;999.90;;;;;;;;;;5391899;26;20466;-79
2024/04/10 04:55:18;;;;;;;1999.90;999.90;;;;;;;;;;5390803;26;20007;-80
2024/04/10 04:57:44;;;;;;;1999.90;999.90;;;;;;;;;;5393979;26;20015;-79
2024/04/10 05:00:14;;;;;;;1999.90;999.90;;;;;;;;;;5394065;26;20094;-78
2024/04/10 05:02:40;;;;;;;1999.90;999.90;;;;;;;;;;5394122;26;20007;-79
2024/04/10 05:05:18;;;;;;;1999.90;999.90;;;;;;;;;;5392940;26;19999;-79
2024/04/10 05:07:48;;;;;;;1999.90;999.90;;;;;;;;;;5389554;26;20001;-79
2024/04/10 05:10:17;;;;;;;1999.90;999.90;;;;;;;;;;5395013;26;19996;-78
2024/04/10 05:12:43;;;;;;;1999.90;999.90;;;;;;;;;;5392806;26;20040;-79
2024/04/10 05:15:13;;;;;;;1999.90;999.90;;;;;;;;;;5394765;26;20470;-79
2024/04/10 05:17:38;;;;;;;1999.90;999.90;;;;;;;;;;5398167;26;20019;-79
2024/04/10 05:20:10;;;;;;;1999.90;999.90;;;;;;;;;;5395705;26;20004;-78
2024/04/10 05:22:39;;;;;;;1999.90;999.90;;;;;;;;;;5385650;26;20080;-79
2024/04/10 05:25:09;;;;;;;1999.90;999.90;;;;;;;;;;5395664;26;20005;-79
2024/04/10 05:27:37;;;;;;;1999.90;999.90;;;;;;;;;;5392712;26;20004;-79
2024/04/10 05:30:07;;;;;;;1999.90;999.90;;;;;;;;;;5394318;26;20000;-78
2024/04/10 05:32:37;;;;;;;1999.90;999.90;;;;;;;;;;5394326;26;20028;-79
2024/04/10 05:35:05;;;;;;;1999.90;999.90;;;;;;;;;;5390090;26;20039;-79
2024/04/10 05:37:34;;;;;;;1999.90;999.90;;;;;;;;;;5399700;26;20003;-79
2024/04/10 05:40:08;;;;;;;1999.90;999.90;;;;;;;;;;5396376;26;20040;-78
2024/04/10 05:42:37;;;;;;;1999.90;999.90;;;;;;;;;;5391741;26;20000;-78
2024/04/10 05:45:03;;;;;;;1999.90;999.90;;;;;;;;;;5397542;26;20008;-77
2024/04/10 05:47:32;;;;;;;1999.90;999.90;;;;;;;;;;5395957;26;20073;-79
2024/04/10 05:49:57;;;;;;;1999.90;999.90;;;;;;;;;;5399268;26;20000;-79
2024/04/10 05:52:25;;;;;;;1999.90;999.90;;;;;;;;;;5391953;26;21111;-79
2024/04/10 05:54:53;;;;;;;1999.90;999.90;;;;;;;;;;5393619;26;20028;-79
2024/04/10 05:57:24;;;;;;;1999.90;999.90;;;;;;;;;;5392715;26;20077;-78
2024/04/10 05:59:51;;;;;;;1999.90;999.90;;;;;;;;;;5392539;26;20123;-78
2024/04/10 06:02:19;;;;;;;1999.90;999.90;;;;;;;;;;5397816;26;20001;-78
2024/04/10 06:04:45;;;;;;;1999.90;999.90;;;;;;;;;;5395177;26;20040;-80
2024/04/10 06:07:13;;;;;;;1999.90;999.90;;;;;;;;;;5396825;26;20073;-79
2024/04/10 06:09:39;;;;;;;1999.90;999.90;;;;;;;;;;5397022;26;20555;-79
2024/04/10 06:12:07;;;;;;;1999.90;999.90;;;;;;;;;;5392179;26;20016;-79
2024/04/10 06:14:36;;;;;;;1999.90;999.90;;;;;;;;;;5393326;26;20008;-78
2024/04/10 06:17:04;;;;;;;1999.90;999.90;;;;;;;;;;5392072;26;20041;-80
2024/04/10 06:19:29;;;;;;;1999.90;999.90;;;;;;;;;;5396164;26;20004;-78
2024/04/10 06:21:58;;;;;;;1999.90;999.90;;;;;;;;;;5394695;26;20424;-79
2024/04/10 06:24:23;;;;;;;1999.90;999.90;;;;;;;;;;5393404;26;20004;-80
2024/04/10 06:26:52;;;;;;;1999.90;999.90;;;;;;;;;;5394355;26;20540;-80
2024/04/10 06:29:18;;;;;;;1999.90;999.90;;;;;;;;;;5397048;26;20102;-78
2024/04/10 06:31:49;;;;;;;1999.90;999.90;;;;;;;;;;5397545;26;20004;-80
2024/04/10 06:34:15;;;;;;;1999.90;999.90;;;;;;;;;;5397916;26;20027;-78
2024/04/10 06:36:43;;;;;;;1999.90;999.90;;;;;;;;;;5394076;26;20098;-78
2024/04/10 06:39:10;;;;;;;1999.90;999.90;;;;;;;;;;5393972;26;20131;-80
2024/04/10 06:41:38;;;;;;;1999.90;999.90;;;;;;;;;;5388617;26;20031;-77
2024/04/10 06:44:04;;;;;;;1999.90;999.90;;;;;;;;;;5395624;26;20081;-81
2024/04/10 06:46:33;;;;;;;1999.90;999.90;;;;;;;;;;5393606;26;20785;-81
2024/04/10 06:49:01;;;;;;;1999.90;999.90;;;;;;;;;;5395493;26;20048;-80
2024/04/10 06:51:30;;;;;;;1999.90;999.90;;;;;;;;;;5390158;26;20053;-78
2024/04/10 06:53:55;;;;;;;1999.90;999.90;;;;;;;;;;5391197;26;20015;-80
2024/04/10 06:56:23;;;;;;;1999.90;999.90;;;;;;;;;;5395546;26;20555;-79
2024/04/10 06:58:49;;;;;;;1999.90;999.90;;;;;;;;;;5389998;26;20015;-81
2024/04/10 07:01:17;;;;;;;1999.90;999.90;;;;;;;;;;5400130;26;20007;-79
2024/04/10 07:03:43;;;;;;;1999.90;999.90;;;;;;;;;;5394627;26;20118;-80
2024/04/10 07:06:14;;;;;;;1999.90;999.90;;;;;;;;;;5390483;26;20462;-80
2024/04/10 07:08:44;;;;;;;1999.90;999.90;;;;;;;;;;5399511;26;20000;-78
2024/04/10 07:11:11;;;;;;;1999.90;999.90;;;;;;;;;;5394067;26;20056;-79
2024/04/10 07:13:40;;;;;;;1999.90;999.90;;;;;;;;;;5395408;26;20018;-79
2024/04/10 07:16:06;;;;;;;1999.90;999.90;;;;;;;;;;5395882;26;20022;-78
2024/04/10 07:18:35;;;;;;;1999.90;999.90;;;;;;;;;;5392792;26;20362;-79
2024/04/10 07:21:02;;;;;;;1999.90;999.90;;;;;;;;;;5391935;26;20018;-78
2024/04/10 07:23:33;;;;;;;1999.90;999.90;;;;;;;;;;5393470;26;20049;-79
2024/04/10 07:26:09;;;;;;;1999.90;999.90;;;;;;;;;;5388002;26;20446;-79
2024/04/10 07:28:44;;;;;;;1999.90;999.90;;;;;;;;;;5399437;26;20015;-79
2024/04/10 07:31:11;;;;;;;1999.90;999.90;;;;;;;;;;5396148;26;20494;-79
2024/04/10 07:33:40;;;;;;;1999.90;999.90;;;;;;;;;;5396934;26;20544;-80
2024/04/10 07:36:09;;;;;;;1999.90;999.90;;;;;;;;;;5392530;26;19999;-80
2024/04/10 07:38:40;;;;;;;1999.90;999.90;;;;;;;;;;5395687;26;20480;-80
2024/04/10 07:41:06;;;;;;;1999.90;999.90;;;;;;;;;;5398037;26;20007;-78
2024/04/10 07:43:36;;;;;;;1999.90;999.90;;;;;;;;;;5389324;26;20048;-79
2024/04/10 07:46:09;;;;;;;1999.90;999.90;;;;;;;;;;5396013;26;20000;-78
2024/04/10 07:48:38;;;;;;;1999.90;999.90;;;;;;;;;;5396346;26;20015;-79
2024/04/10 07:51:04;;;;;;;1999.90;999.90;;;;;;;;;;5401720;26;20003;-79
2024/04/10 07:53:33;;;;;;;1999.90;999.90;;;;;;;;;;5395276;26;20036;-78
2024/04/10 07:56:02;;;;;;;1999.90;999.90;;;;;;;;;;5396107;26;20019;-78
2024/04/10 07:58:30;;;;;;;1999.90;999.90;;;;;;;;;;5393596;26;20004;-78
2024/04/10 08:00:57;;;;;;;1999.90;999.90;;;;;;;;;;5395332;26;19999;-78
2024/04/10 08:03:25;;;;;;;1999.90;999.90;;;;;;;;;;5395285;26;20022;-78
2024/04/10 08:05:51;;;;;;;1999.90;999.90;;;;;;;;;;5396692;26;20083;-78
2024/04/10 08:08:20;;;;;;;1999.90;999.90;;;;;;;;;;5390318;26;20012;-77
2024/04/10 08:10:46;;;;;;;1999.90;999.90;;;;;;;;;;5391859;26;20004;-78
2024/04/10 08:13:17;;;;;;;1999.90;999.90;;;;;;;;;;5392190;26;20011;-78
2024/04/10 08:15:53;;;;;;;1999.90;999.90;;;;;;;;;;5396413;26;20040;-78
2024/04/10 08:18:21;;;;;;;1999.90;999.90;;;;;;;;;;5391585;26;20432;-78
2024/04/10 08:20:47;;;;;;;1999.90;999.90;;;;;;;;;;5389500;26;20044;-79
2024/04/10 08:23:15;;;;;;;1999.90;999.90;;;;;;;;;;5396407;26;20079;-78
2024/04/10 08:25:40;;;;;;;1999.90;999.90;;;;;;;;;;5392302;26;20077;-78
2024/04/10 08:28:09;;;;;;;1999.90;999.90;;;;;;;;;;5393433;26;20442;-79
2024/04/10 08:32:17;;;;;;;1999.90;999.90;;;;;;;;;;5482626;25;20358;-78
2024/04/10 08:34:42;;;;;;;1999.90;999.90;;;;;;;;;;5465559;26;20018;-78
2024/04/10 08:37:11;;;;;;;1999.90;999.90;;;;;;;;;;5465766;26;20011;-78
2024/04/10 08:39:37;;;;;;;1999.90;999.90;;;;;;;;;;5461516;26;20014;-80
2024/04/10 08:42:06;;;;;;;1999.90;999.90;;;;;;;;;;5466048;26;20024;-80
2024/04/10 08:44:32;;;;;;;1999.90;999.90;;;;;;;;;;5465203;26;20344;-80
2024/04/10 08:47:01;;;;;;;1999.90;999.90;;;;;;;;;;5463357;26;20099;-80
2024/04/10 08:49:30;;;;;;;1999.90;999.90;;;;;;;;;;5460569;26;20007;-78
2024/04/10 08:51:58;;;;;;;1999.90;999.90;;;;;;;;;;5464364;26;20018;-78
2024/04/10 08:54:23;;;;;;;1999.90;999.90;;;;;;;;;;5462825;26;20045;-78
2024/04/10 08:56:52;;;;;;;1999.90;999.90;;;;;;;;;;5465447;26;20010;-78
2024/04/10 08:59:17;;;;;;;1999.90;999.90;;;;;;;;;;5461218;26;20104;-78
2024/04/10 09:01:46;;;;;;;1999.90;999.90;;;;;;;;;;5466092;26;20014;-78
2024/04/10 09:04:13;;;;;;;1999.90;999.90;;;;;;;;;;5463611;26;20003;-78
2024/04/10 09:06:44;;;;;;;1999.90;999.90;;;;;;;;;;5466273;26;19999;-78
2024/04/10 09:09:09;;;;;;;1999.90;999.90;;;;;;;;;;5462624;26;20017;-79
2024/04/10 09:11:39;;;;;;;1999.90;999.90;;;;;;;;;;5461640;26;20004;-79
2024/04/10 09:14:06;;;;;;;1999.90;999.90;;;;;;;;;;5465322;26;20041;-79
2024/04/10 09:16:35;;;;;;;1999.90;999.90;;;;;;;;;;5463774;26;20069;-79
2024/04/10 09:19:08;;;;;;;1999.90;999.90;;;;;;;;;;5464636;26;20474;-79
2024/04/10 09:21:37;;;;;;;1999.90;999.90;;;;;;;;;;5462342;26;19998;-79
2024/04/10 09:24:05;;;;;;;1999.90;999.90;;;;;;;;;;5464325;26;20013;-78
2024/04/10 09:26:33;;;;;;;1999.90;999.90;;;;;;;;;;5464950;26;20010;-79
2024/04/10 09:29:06;;;;;;;1999.90;999.90;;;;;;;;;;5463698;26;20019;-79
2024/04/10 09:31:34;;;;;;;1999.90;999.90;;;;;;;;;;5462958;26;20006;-78
2024/04/10 09:34:00;;;;;;;1999.90;999.90;;;;;;;;;;5465156;26;20443;-79
2024/04/10 09:36:32;;;;;;;1999.90;999.90;;;;;;;;;;5464102;26;20018;-80
2024/04/10 09:38:59;;;;;;;1999.90;999.90;;;;;;;;;;5463352;26;20017;-79
2024/04/10 09:41:31;;;;;;;1999.90;999.90;;;;;;;;;;5458345;26;20013;-79
2024/04/10 09:43:58;;;;;;;1999.90;999.90;;;;;;;;;;5443288;26;20014;-79
2024/04/10 09:46:35;;;;;;;1999.90;999.90;;;;;;;;;;5449090;26;20010;-79
2024/04/10 09:49:08;;;;;;;1999.90;999.90;;;;;;;;;;5446807;26;20014;-79
2024/04/10 09:51:41;;;;;;;1999.90;999.90;;;;;;;;;;5446296;26;20402;-79
2024/04/10 09:54:06;;;;;;;1999.90;999.90;;;;;;;;;;5442800;26;19999;-79
2024/04/10 09:56:39;;;;;;;1999.90;999.90;;;;;;;;;;5448081;26;20468;-79
2024/04/10 09:59:07;;;;;;;1999.90;999.90;;;;;;;;;;5443532;26;20097;-79
2024/04/10 10:01:36;;;;;;;1999.90;999.90;;;;;;;;;;5444688;26;19999;-79
2024/04/10 10:04:02;;;;;;;1999.90;999.90;;;;;;;;;;5445870;26;20017;-79
2024/04/10 10:06:34;;;;;;;1999.90;999.90;;;;;;;;;;5446687;26;19999;-79
2024/04/10 10:08:59;;;;;;;1999.90;999.90;;;;;;;;;;5446169;26;20457;-79
2024/04/10 10:11:28;;;;;;;1999.90;999.90;;;;;;;;;;5449170;26;20022;-80
2024/04/10 10:14:02;;;;;;;1999.90;999.90;;;;;;;;;;5443249;26;20014;-79
2024/04/10 10:16:31;;;;;;;1999.90;999.90;;;;;;;;;;5445703;26;20002;-79
2024/04/10 10:18:59;;;;;;;1999.90;999.90;;;;;;;;;;5448868;26;20013;-79
2024/04/10 10:21:27;;;;;;;1999.90;999.90;;;;;;;;;;5448874;26;20034;-79
2024/04/10 10:23:57;;;;;;;1999.90;999.90;;;;;;;;;;5446717;26;20018;-79
2024/04/10 10:26:27;;;;;;;1999.90;999.90;;;;;;;;;;5446832;26;20003;-79
2024/04/10 10:29:03;;;;;;;1999.90;999.90;;;;;;;;;;5448049;26;19999;-79
2024/04/10 10:31:31;;;;;;;1999.90;999.90;;;;;;;;;;5445997;26;20003;-79
2024/04/10 10:34:00;;;;;;;1999.90;999.90;;;;;;;;;;5445905;26;20043;-80
2024/04/10 10:36:28;;;;;;;1999.90;999.90;;;;;;;;;;5447232;26;20493;-79
2024/04/10 10:39:00;;;;;;;1999.90;999.90;;;;;;;;;;5445530;26;20014;-79
2024/04/10 10:41:28;;;;;;;1999.90;999.90;;;;;;;;;;5443636;26;20463;-80
2024/04/10 10:43:57;;;;;;;1999.90;999.90;;;;;;;;;;5443186;26;20538;-80
2024/04/10 10:46:28;;;;;;;1999.90;999.90;;;;;;;;;;5443541;26;20010;-80
2024/04/10 10:48:54;;;;;;;1999.90;999.90;;;;;;;;;;5447244;26;20100;-79
2024/04/10 10:51:23;;;;;;;1999.90;999.90;;;;;;;;;;5448116;26;20468;-79
2024/04/10 10:53:49;;;;;;;1999.90;999.90;;;;;;;;;;5448595;26;20009;-79
2024/04/10 10:56:26;;;;;;;1999.90;999.90;;;;;;;;;;5438879;26;20003;-80
2024/04/10 10:59:07;;;;;;;1999.90;999.90;;;;;;;;;;5443332;26;19998;-79
2024/04/10 11:01:39;;;;;;;1999.90;999.90;;;;;;;;;;5447164;26;20014;-79
2024/04/10 11:04:08;;;;;;;1999.90;999.90;;;;;;;;;;5443024;26;20010;-79
2024/04/10 11:06:36;;;;;;;1999.90;999.90;;;;;;;;;;5447841;26;20076;-79
2024/04/10 11:09:05;;;;;;;1999.90;999.90;;;;;;;;;;5448014;26;20039;-83
2024/04/10 11:11:34;;;;;;;1999.90;999.90;;;;;;;;;;5447921;26;19998;-83
2024/04/10 11:13:59;;;;;;;1999.90;999.90;;;;;;;;;;5446283;26;20058;-83
2024/04/10 11:16:31;;;;;;;1999.90;999.90;;;;;;;;;;5447662;26;20421;-83
2024/04/10 11:19:00;;;;;;;1999.90;999.90;;;;;;;;;;5445535;26;20011;-82
2024/04/10 11:21:28;;;;;;;1999.90;999.90;;;;;;;;;;5448908;26;20006;-82
2024/04/10 11:23:54;;;;;;;1999.90;999.90;;;;;;;;;;5447995;26;19999;-83
2024/04/10 11:26:22;;;;;;;1999.90;999.90;;;;;;;;;;5439943;26;20039;-83
2024/04/10 11:28:53;;;;;;;1999.90;999.90;;;;;;;;;;5447227;26;20338;-85
2024/04/10 11:31:21;;;;;;;1999.90;999.90;;;;;;;;;;5445234;26;20043;-84
2024/04/10 11:33:47;;;;;;;1999.90;999.90;;;;;;;;;;5443504;26;20014;-84
2024/04/10 11:36:17;;;;;;;1999.90;999.90;;;;;;;;;;5447378;26;20014;-84
2024/04/10 11:38:43;;;;;;;1999.90;999.90;;;;;;;;;;5446821;26;20100;-85
2024/04/10 11:41:13;;;;;;;1999.90;999.90;;;;;;;;;;5447612;26;20782;-84
2024/04/10 11:43:38;;;;;;;1999.90;999.90;;;;;;;;;;5445665;26;20009;-84
2024/04/10 11:46:07;;;;;;;1999.90;999.90;;;;;;;;;;5448410;26;20003;-84
2024/04/10 11:48:32;;;;;;;1999.90;999.90;;;;;;;;;;5445990;26;19999;-84
2024/04/10 11:51:01;;;;;;;1999.90;999.90;;;;;;;;;;5446276;26;20017;-85
2024/04/10 11:53:30;;;;;;;1999.90;999.90;;;;;;;;;;5443475;26;20002;-85
2024/04/10 11:55:59;;;;;;;1999.90;999.90;;;;;;;;;;5447990;26;20079;-85
2024/04/10 11:58:24;;;;;;;1999.90;999.90;;;;;;;;;;5446867;26;20019;-85
2024/04/10 12:00:53;;;;;;;1999.90;999.90;;;;;;;;;;5443640;26;20378;-86
2024/04/10 12:03:18;;;;;;;1999.90;999.90;;;;;;;;;;5446979;26;20003;-85
2024/04/10 12:05:46;;;;;;;1999.90;999.90;;;;;;;;;;5448099;26;20479;-88
2024/04/10 12:08:12;;;;;;;1999.90;999.90;;;;;;;;;;5446101;26;20082;-87
2024/04/10 12:10:43;;;;;;;1999.90;999.90;;;;;;;;;;5450034;26;20014;-88
2024/04/10 12:13:09;;;;;;;1999.90;999.90;;;;;;;;;;5445550;26;20011;-86
2024/04/10 12:15:37;;;;;;;1999.90;999.90;;;;;;;;;;5448716;26;20017;-87
2024/04/10 12:18:03;;;;;;;1999.90;999.90;;;;;;;;;;5437804;26;20015;-88
2024/04/10 12:20:31;;;;;;;1999.90;999.90;;;;;;;;;;5447894;26;20087;-80
2024/04/10 12:22:56;;;;;;;1999.90;999.90;;;;;;;;;;5443690;26;20653;-81
2024/04/10 12:25:25;;;;;;;1999.90;999.90;;;;;;;;;;5445549;26;20006;-80
2024/04/10 12:27:54;;;;;;;1999.90;999.90;;;;;;;;;;5447204;26;20015;-81
2024/04/10 12:30:22;;;;;;;1999.90;999.90;;;;;;;;;;5442918;26;20301;-81
2024/04/10 12:32:48;;;;;;;1999.90;999.90;;;;;;;;;;5444113;26;20039;-80
2024/04/10 12:38:12;;;;;;;1999.90;999.90;;;;;;;;;;5338301;26;20013;-80
2024/04/10 12:40:40;;;;;;;1999.90;999.90;;;;;;;;;;5420140;26;20003;-80
2024/04/10 12:43:09;;;;;;;1999.90;999.90;;;;;;;;;;5444157;26;20015;-79
2024/04/10 12:45:37;;;;;;;1999.90;999.90;;;;;;;;;;5447456;26;20003;-81
2024/04/10 12:48:05;;;;;;;1999.90;999.90;;;;;;;;;;5442303;26;20133;-80
2024/04/10 12:50:34;;;;;;;1999.90;999.90;;;;;;;;;;5444628;26;20002;-81
2024/04/10 12:52:59;;;;;;;1999.90;999.90;;;;;;;;;;5446119;26;20007;-80
2024/04/10 12:55:27;;;;;;;1999.90;999.90;;;;;;;;;;5445925;26;20014;-80
2024/04/10 12:58:02;;;;;;;1999.90;999.90;;;;;;;;;;5441866;26;20054;-81
2024/04/10 13:00:33;;;;;;;1999.90;999.90;;;;;;;;;;5443323;26;20000;-80
2024/04/10 13:02:59;;;;;;;1999.90;999.90;;;;;;;;;;5442503;26;20292;-81
2024/04/10 13:05:29;;;;;;;1999.90;999.90;;;;;;;;;;5444285;26;20079;-82
2024/04/10 13:07:55;;;;;;;1999.90;999.90;;;;;;;;;;5445083;26;20003;-81
2024/04/10 13:10:24;;;;;;;1999.90;999.90;;;;;;;;;;5442279;26;20021;-80
2024/04/10 13:12:49;;;;;;;1999.90;999.90;;;;;;;;;;5444287;26;20018;-81
2024/04/10 13:15:18;;;;;;;1999.90;999.90;;;;;;;;;;5445891;26;20015;-81
2024/04/10 13:17:46;;;;;;;1999.90;999.90;;;;;;;;;;5446426;26;20091;-81
2024/04/10 13:20:14;;;;;;;1999.90;999.90;;;;;;;;;;5447086;26;20073;-81
2024/04/10 13:22:39;;;;;;;1999.90;999.90;;;;;;;;;;5447317;26;20496;-80
2024/04/10 13:25:08;;;;;;;1999.90;999.90;;;;;;;;;;5449054;26;19999;-81
2024/04/10 13:27:34;;;;;;;1999.90;999.90;;;;;;;;;;5446831;26;20002;-80
2024/04/10 13:30:04;;;;;;;1999.90;999.90;;;;;;;;;;5450756;26;20010;-86
2024/04/10 13:32:31;;;;;;;1999.90;999.90;;;;;;;;;;5451446;26;20030;-85
2024/04/10 13:35:02;;;;;;;1999.90;999.90;;;;;;;;;;5447287;26;20025;-86
2024/04/10 13:37:27;;;;;;;1999.90;999.90;;;;;;;;;;5451190;26;20100;-86
2024/04/10 13:39:55;;;;;;;1999.90;999.90;;;;;;;;;;5452653;26;20011;-88
2024/04/10 13:42:21;;;;;;;1999.90;999.90;;;;;;;;;;5448465;26;20066;-85
2024/04/10 13:44:49;;;;;;;1999.90;999.90;;;;;;;;;;5445086;26;20087;-83
2024/04/10 13:47:16;;;;;;;1999.90;999.90;;;;;;;;;;5447941;26;20003;-84
2024/04/10 13:49:45;;;;;;;1999.90;999.90;;;;;;;;;;5449554;26;20080;-84
2024/04/10 13:52:13;;;;;;;1999.90;999.90;;;;;;;;;;5446383;26;20015;-84